sensor_id;sensor_type;location;lat;lon;timestamp;P1;durP1;ratioP1;P2;durP2;ratioP2
8889;SDS011;4481;43.406;24.454;2022-08-23T00:01:11;13.07;;;8.50;;
8889;SDS011;4481;43.406;24.454;2022-08-23T00:03:38;13.70;;;8.43;;
8889;SDS011;4481;43.406;24.454;2022-08-23T00:06:07;18.80;;;9.60;;
8889;SDS011;4481;43.406;24.454;2022-08-23T00:08:34;10.73;;;7.80;;
8889;SDS011;4481;43.406;24.454;2022-08-23T00:11:00;13.77;;;7.73;;
8889;SDS011;4481;43.406;24.454;2022-08-23T00:13:27;11.93;;;8.13;;
8889;SDS011;4481;43.406;24.454;2022-08-23T00:15:53;13.17;;;8.67;;
8889;SDS011;4481;43.406;24.454;2022-08-23T00:18:20;8.97;;;7.90;;
8889;SDS011;4481;43.406;24.454;2022-08-23T00:20:48;11.50;;;8.17;;
8889;SDS011;4481;43.406;24.454;2022-08-23T00:23:15;12.90;;;8.43;;
8889;SDS011;4481;43.406;24.454;2022-08-23T00:25:41;11.63;;;8.53;;
8889;SDS011;4481;43.406;24.454;2022-08-23T00:28:08;10.10;;;7.90;;
8889;SDS011;4481;43.406;24.454;2022-08-23T00:30:35;11.43;;;8.30;;
8889;SDS011;4481;43.406;24.454;2022-08-23T00:33:02;10.00;;;7.97;;
8889;SDS011;4481;43.406;24.454;2022-08-23T00:35:29;10.67;;;9.10;;
8889;SDS011;4481;43.406;24.454;2022-08-23T00:37:56;10.10;;;7.47;;
8889;SDS011;4481;43.406;24.454;2022-08-23T00:40:22;12.83;;;8.80;;
8889;SDS011;4481;43.406;24.454;2022-08-23T00:42:49;11.47;;;7.97;;
8889;SDS011;4481;43.406;24.454;2022-08-23T00:45:38;15.67;;;10.17;;
8889;SDS011;4481;43.406;24.454;2022-08-23T00:48:28;11.63;;;8.20;;
8889;SDS011;4481;43.406;24.454;2022-08-23T00:50:56;11.83;;;8.00;;
8889;SDS011;4481;43.406;24.454;2022-08-23T00:53:30;11.47;;;8.50;;
8889;SDS011;4481;43.406;24.454;2022-08-23T00:55:59;13.63;;;8.27;;
8889;SDS011;4481;43.406;24.454;2022-08-23T00:58:29;9.53;;;8.23;;
8889;SDS011;4481;43.406;24.454;2022-08-23T01:00:56;11.73;;;8.27;;
8889;SDS011;4481;43.406;24.454;2022-08-23T01:03:25;11.57;;;8.50;;
8889;SDS011;4481;43.406;24.454;2022-08-23T01:05:53;13.03;;;8.57;;
8889;SDS011;4481;43.406;24.454;2022-08-23T01:08:26;10.53;;;7.83;;
8889;SDS011;4481;43.406;24.454;2022-08-23T01:10:58;12.03;;;9.43;;
8889;SDS011;4481;43.406;24.454;2022-08-23T01:13:28;16.47;;;8.93;;
8889;SDS011;4481;43.406;24.454;2022-08-23T01:16:03;10.87;;;8.50;;
8889;SDS011;4481;43.406;24.454;2022-08-23T01:18:34;11.97;;;9.40;;
8889;SDS011;4481;43.406;24.454;2022-08-23T01:21:06;11.47;;;8.90;;
8889;SDS011;4481;43.406;24.454;2022-08-23T01:23:36;10.67;;;8.23;;
8889;SDS011;4481;43.406;24.454;2022-08-23T01:26:07;14.13;;;8.43;;
8889;SDS011;4481;43.406;24.454;2022-08-23T01:28:35;13.63;;;9.30;;
8889;SDS011;4481;43.406;24.454;2022-08-23T01:31:01;10.13;;;8.17;;
8889;SDS011;4481;43.406;24.454;2022-08-23T01:33:29;16.33;;;9.00;;
8889;SDS011;4481;43.406;24.454;2022-08-23T01:35:56;9.63;;;8.33;;
8889;SDS011;4481;43.406;24.454;2022-08-23T01:38:23;13.23;;;8.93;;
8889;SDS011;4481;43.406;24.454;2022-08-23T01:40:51;11.53;;;8.70;;
8889;SDS011;4481;43.406;24.454;2022-08-23T01:43:18;14.03;;;9.27;;
8889;SDS011;4481;43.406;24.454;2022-08-23T01:45:45;15.23;;;9.30;;
8889;SDS011;4481;43.406;24.454;2022-08-23T01:48:13;12.27;;;7.93;;
8889;SDS011;4481;43.406;24.454;2022-08-23T01:50:40;11.30;;;9.13;;
8889;SDS011;4481;43.406;24.454;2022-08-23T01:53:07;19.27;;;8.20;;
8889;SDS011;4481;43.406;24.454;2022-08-23T01:55:34;9.33;;;7.50;;
8889;SDS011;4481;43.406;24.454;2022-08-23T01:58:02;14.03;;;8.87;;
8889;SDS011;4481;43.406;24.454;2022-08-23T02:00:30;9.33;;;7.57;;
8889;SDS011;4481;43.406;24.454;2022-08-23T02:02:59;17.70;;;9.20;;
8889;SDS011;4481;43.406;24.454;2022-08-23T02:05:27;12.47;;;7.73;;
8889;SDS011;4481;43.406;24.454;2022-08-23T02:07:53;11.10;;;8.10;;
8889;SDS011;4481;43.406;24.454;2022-08-23T02:10:20;11.63;;;8.00;;
8889;SDS011;4481;43.406;24.454;2022-08-23T02:12:47;8.70;;;6.90;;
8889;SDS011;4481;43.406;24.454;2022-08-23T02:15:15;11.67;;;8.97;;
8889;SDS011;4481;43.406;24.454;2022-08-23T02:17:41;11.60;;;8.03;;
8889;SDS011;4481;43.406;24.454;2022-08-23T02:20:08;17.83;;;8.37;;
8889;SDS011;4481;43.406;24.454;2022-08-23T02:22:35;14.23;;;8.33;;
8889;SDS011;4481;43.406;24.454;2022-08-23T02:25:03;10.37;;;7.27;;
8889;SDS011;4481;43.406;24.454;2022-08-23T02:27:29;10.77;;;8.27;;
8889;SDS011;4481;43.406;24.454;2022-08-23T02:29:56;11.67;;;7.63;;
8889;SDS011;4481;43.406;24.454;2022-08-23T02:32:23;9.57;;;7.67;;
8889;SDS011;4481;43.406;24.454;2022-08-23T02:34:49;12.73;;;7.57;;
8889;SDS011;4481;43.406;24.454;2022-08-23T02:37:16;13.07;;;8.13;;
8889;SDS011;4481;43.406;24.454;2022-08-23T02:39:42;12.57;;;8.70;;
8889;SDS011;4481;43.406;24.454;2022-08-23T02:42:08;11.90;;;8.10;;
8889;SDS011;4481;43.406;24.454;2022-08-23T02:44:35;14.53;;;9.43;;
8889;SDS011;4481;43.406;24.454;2022-08-23T02:47:03;13.83;;;9.40;;
8889;SDS011;4481;43.406;24.454;2022-08-23T02:49:32;13.17;;;10.00;;
8889;SDS011;4481;43.406;24.454;2022-08-23T02:51:58;13.23;;;9.40;;
8889;SDS011;4481;43.406;24.454;2022-08-23T02:54:24;14.77;;;9.13;;
8889;SDS011;4481;43.406;24.454;2022-08-23T02:56:51;12.47;;;9.37;;
8889;SDS011;4481;43.406;24.454;2022-08-23T02:59:18;13.10;;;9.73;;
8889;SDS011;4481;43.406;24.454;2022-08-23T03:01:44;13.00;;;9.13;;
8889;SDS011;4481;43.406;24.454;2022-08-23T03:04:10;12.97;;;9.97;;
8889;SDS011;4481;43.406;24.454;2022-08-23T03:06:37;12.00;;;9.73;;
8889;SDS011;4481;43.406;24.454;2022-08-23T03:09:04;18.13;;;10.00;;
8889;SDS011;4481;43.406;24.454;2022-08-23T03:11:31;14.63;;;10.37;;
8889;SDS011;4481;43.406;24.454;2022-08-23T03:13:58;15.57;;;9.17;;
8889;SDS011;4481;43.406;24.454;2022-08-23T03:16:25;15.17;;;10.47;;
8889;SDS011;4481;43.406;24.454;2022-08-23T03:18:52;12.27;;;9.30;;
8889;SDS011;4481;43.406;24.454;2022-08-23T03:21:18;10.93;;;8.77;;
8889;SDS011;4481;43.406;24.454;2022-08-23T03:23:46;11.53;;;8.53;;
8889;SDS011;4481;43.406;24.454;2022-08-23T03:26:13;11.93;;;9.20;;
8889;SDS011;4481;43.406;24.454;2022-08-23T03:28:40;12.07;;;9.20;;
8889;SDS011;4481;43.406;24.454;2022-08-23T03:31:08;12.23;;;8.93;;
8889;SDS011;4481;43.406;24.454;2022-08-23T03:33:35;12.03;;;8.93;;
8889;SDS011;4481;43.406;24.454;2022-08-23T03:36:03;16.23;;;9.07;;
8889;SDS011;4481;43.406;24.454;2022-08-23T03:38:31;13.93;;;9.03;;
8889;SDS011;4481;43.406;24.454;2022-08-23T03:40:58;12.27;;;8.40;;
8889;SDS011;4481;43.406;24.454;2022-08-23T03:43:25;17.03;;;8.57;;
8889;SDS011;4481;43.406;24.454;2022-08-23T03:45:51;11.70;;;8.60;;
8889;SDS011;4481;43.406;24.454;2022-08-23T03:48:17;12.17;;;7.93;;
8889;SDS011;4481;43.406;24.454;2022-08-23T03:50:44;11.77;;;7.97;;
8889;SDS011;4481;43.406;24.454;2022-08-23T03:53:10;9.77;;;8.20;;
8889;SDS011;4481;43.406;24.454;2022-08-23T03:55:37;12.47;;;8.33;;
8889;SDS011;4481;43.406;24.454;2022-08-23T03:58:04;12.37;;;7.80;;
8889;SDS011;4481;43.406;24.454;2022-08-23T04:00:30;12.37;;;8.63;;
8889;SDS011;4481;43.406;24.454;2022-08-23T04:02:56;9.80;;;8.17;;
8889;SDS011;4481;43.406;24.454;2022-08-23T04:05:23;13.93;;;9.73;;
8889;SDS011;4481;43.406;24.454;2022-08-23T04:07:49;13.17;;;8.97;;
8889;SDS011;4481;43.406;24.454;2022-08-23T04:10:16;17.43;;;10.23;;
8889;SDS011;4481;43.406;24.454;2022-08-23T04:12:43;16.63;;;10.53;;
8889;SDS011;4481;43.406;24.454;2022-08-23T04:15:10;11.60;;;8.90;;
8889;SDS011;4481;43.406;24.454;2022-08-23T04:17:37;12.90;;;8.77;;
8889;SDS011;4481;43.406;24.454;2022-08-23T04:20:04;12.57;;;9.83;;
8889;SDS011;4481;43.406;24.454;2022-08-23T04:22:32;16.13;;;10.40;;
8889;SDS011;4481;43.406;24.454;2022-08-23T04:24:58;12.97;;;9.93;;
8889;SDS011;4481;43.406;24.454;2022-08-23T04:27:24;13.30;;;9.07;;
8889;SDS011;4481;43.406;24.454;2022-08-23T04:29:50;15.27;;;9.10;;
8889;SDS011;4481;43.406;24.454;2022-08-23T04:32:17;14.10;;;9.33;;
8889;SDS011;4481;43.406;24.454;2022-08-23T04:34:43;17.27;;;10.20;;
8889;SDS011;4481;43.406;24.454;2022-08-23T04:37:11;16.80;;;10.40;;
8889;SDS011;4481;43.406;24.454;2022-08-23T04:39:38;15.90;;;10.37;;
8889;SDS011;4481;43.406;24.454;2022-08-23T04:42:19;13.00;;;9.83;;
8889;SDS011;4481;43.406;24.454;2022-08-23T04:44:47;12.10;;;10.20;;
8889;SDS011;4481;43.406;24.454;2022-08-23T04:47:13;14.30;;;10.30;;
8889;SDS011;4481;43.406;24.454;2022-08-23T04:49:40;16.03;;;11.07;;
8889;SDS011;4481;43.406;24.454;2022-08-23T04:52:06;13.53;;;10.83;;
8889;SDS011;4481;43.406;24.454;2022-08-23T04:54:33;14.00;;;10.97;;
8889;SDS011;4481;43.406;24.454;2022-08-23T04:57:00;18.97;;;11.13;;
8889;SDS011;4481;43.406;24.454;2022-08-23T04:59:27;15.03;;;10.70;;
8889;SDS011;4481;43.406;24.454;2022-08-23T05:01:53;15.30;;;11.87;;
8889;SDS011;4481;43.406;24.454;2022-08-23T05:04:19;15.97;;;11.87;;
8889;SDS011;4481;43.406;24.454;2022-08-23T05:06:46;18.87;;;10.83;;
8889;SDS011;4481;43.406;24.454;2022-08-23T05:09:13;19.63;;;11.63;;
8889;SDS011;4481;43.406;24.454;2022-08-23T05:11:39;15.53;;;10.87;;
8889;SDS011;4481;43.406;24.454;2022-08-23T05:14:05;16.63;;;12.03;;
8889;SDS011;4481;43.406;24.454;2022-08-23T05:16:31;18.50;;;11.70;;
8889;SDS011;4481;43.406;24.454;2022-08-23T05:18:58;20.70;;;12.57;;
8889;SDS011;4481;43.406;24.454;2022-08-23T05:21:24;18.10;;;11.30;;
8889;SDS011;4481;43.406;24.454;2022-08-23T05:23:51;17.17;;;10.37;;
8889;SDS011;4481;43.406;24.454;2022-08-23T05:26:18;13.40;;;10.53;;
8889;SDS011;4481;43.406;24.454;2022-08-23T05:28:45;16.40;;;11.80;;
8889;SDS011;4481;43.406;24.454;2022-08-23T05:31:14;16.43;;;11.67;;
8889;SDS011;4481;43.406;24.454;2022-08-23T05:33:42;15.97;;;10.53;;
8889;SDS011;4481;43.406;24.454;2022-08-23T05:36:09;15.30;;;11.27;;
8889;SDS011;4481;43.406;24.454;2022-08-23T05:38:37;15.90;;;11.90;;
8889;SDS011;4481;43.406;24.454;2022-08-23T05:41:05;16.47;;;11.73;;
8889;SDS011;4481;43.406;24.454;2022-08-23T05:43:31;16.77;;;11.03;;
8889;SDS011;4481;43.406;24.454;2022-08-23T05:45:59;15.60;;;10.23;;
8889;SDS011;4481;43.406;24.454;2022-08-23T05:48:26;16.70;;;9.97;;
8889;SDS011;4481;43.406;24.454;2022-08-23T05:50:52;12.67;;;8.77;;
8889;SDS011;4481;43.406;24.454;2022-08-23T05:53:19;7.80;;;7.00;;
8889;SDS011;4481;43.406;24.454;2022-08-23T05:55:45;10.90;;;7.00;;
8889;SDS011;4481;43.406;24.454;2022-08-23T05:58:12;10.67;;;5.87;;
8889;SDS011;4481;43.406;24.454;2022-08-23T06:00:38;15.73;;;8.53;;
8889;SDS011;4481;43.406;24.454;2022-08-23T06:03:04;20.23;;;7.80;;
8889;SDS011;4481;43.406;24.454;2022-08-23T06:05:30;10.17;;;6.70;;
8889;SDS011;4481;43.406;24.454;2022-08-23T06:07:57;8.23;;;5.47;;
8889;SDS011;4481;43.406;24.454;2022-08-23T06:10:24;18.83;;;7.57;;
8889;SDS011;4481;43.406;24.454;2022-08-23T06:12:50;14.80;;;8.20;;
8889;SDS011;4481;43.406;24.454;2022-08-23T06:15:17;16.03;;;5.47;;
8889;SDS011;4481;43.406;24.454;2022-08-23T06:17:43;9.53;;;4.30;;
8889;SDS011;4481;43.406;24.454;2022-08-23T06:20:11;5.03;;;3.20;;
8889;SDS011;4481;43.406;24.454;2022-08-23T06:22:39;3.83;;;3.10;;
8889;SDS011;4481;43.406;24.454;2022-08-23T06:25:06;7.20;;;3.87;;
8889;SDS011;4481;43.406;24.454;2022-08-23T06:27:33;11.60;;;3.70;;
8889;SDS011;4481;43.406;24.454;2022-08-23T06:29:59;8.57;;;4.00;;
8889;SDS011;4481;43.406;24.454;2022-08-23T06:32:26;10.53;;;3.40;;
8889;SDS011;4481;43.406;24.454;2022-08-23T06:34:52;5.03;;;3.50;;
8889;SDS011;4481;43.406;24.454;2022-08-23T06:37:18;4.43;;;3.37;;
8889;SDS011;4481;43.406;24.454;2022-08-23T06:39:44;5.10;;;3.40;;
8889;SDS011;4481;43.406;24.454;2022-08-23T06:42:11;4.47;;;3.47;;
8889;SDS011;4481;43.406;24.454;2022-08-23T06:44:40;5.10;;;3.00;;
8889;SDS011;4481;43.406;24.454;2022-08-23T06:47:06;3.27;;;2.70;;
8889;SDS011;4481;43.406;24.454;2022-08-23T06:49:34;5.77;;;3.40;;
8889;SDS011;4481;43.406;24.454;2022-08-23T06:52:00;8.27;;;3.60;;
8889;SDS011;4481;43.406;24.454;2022-08-23T06:54:29;6.47;;;4.10;;
8889;SDS011;4481;43.406;24.454;2022-08-23T06:56:57;5.93;;;4.03;;
8889;SDS011;4481;43.406;24.454;2022-08-23T06:59:24;5.60;;;3.50;;
8889;SDS011;4481;43.406;24.454;2022-08-23T07:01:52;12.03;;;4.37;;
8889;SDS011;4481;43.406;24.454;2022-08-23T07:04:21;8.33;;;3.03;;
8889;SDS011;4481;43.406;24.454;2022-08-23T07:06:53;5.60;;;2.77;;
8889;SDS011;4481;43.406;24.454;2022-08-23T07:09:20;7.13;;;3.97;;
8889;SDS011;4481;43.406;24.454;2022-08-23T07:11:47;6.33;;;3.40;;
8889;SDS011;4481;43.406;24.454;2022-08-23T07:14:14;5.57;;;3.43;;
8889;SDS011;4481;43.406;24.454;2022-08-23T07:16:42;9.67;;;4.23;;
8889;SDS011;4481;43.406;24.454;2022-08-23T07:19:12;9.93;;;4.93;;
8889;SDS011;4481;43.406;24.454;2022-08-23T07:21:38;11.87;;;5.87;;
8889;SDS011;4481;43.406;24.454;2022-08-23T07:24:06;9.00;;;6.03;;
8889;SDS011;4481;43.406;24.454;2022-08-23T07:26:33;8.40;;;5.53;;
8889;SDS011;4481;43.406;24.454;2022-08-23T07:29:01;9.30;;;5.60;;
8889;SDS011;4481;43.406;24.454;2022-08-23T07:31:29;7.07;;;4.20;;
8889;SDS011;4481;43.406;24.454;2022-08-23T07:33:58;8.00;;;5.83;;
8889;SDS011;4481;43.406;24.454;2022-08-23T07:36:25;9.70;;;5.60;;
8889;SDS011;4481;43.406;24.454;2022-08-23T07:38:53;12.10;;;5.67;;
8889;SDS011;4481;43.406;24.454;2022-08-23T07:41:21;9.33;;;4.60;;
8889;SDS011;4481;43.406;24.454;2022-08-23T07:43:48;6.53;;;4.37;;
8889;SDS011;4481;43.406;24.454;2022-08-23T07:46:16;8.63;;;4.70;;
8889;SDS011;4481;43.406;24.454;2022-08-23T07:48:43;8.07;;;3.83;;
8889;SDS011;4481;43.406;24.454;2022-08-23T07:51:10;8.57;;;5.17;;
8889;SDS011;4481;43.406;24.454;2022-08-23T07:53:37;5.63;;;3.80;;
8889;SDS011;4481;43.406;24.454;2022-08-23T07:56:04;6.63;;;3.70;;
8889;SDS011;4481;43.406;24.454;2022-08-23T07:58:32;7.80;;;4.37;;
8889;SDS011;4481;43.406;24.454;2022-08-23T08:01:07;8.97;;;4.83;;
8889;SDS011;4481;43.406;24.454;2022-08-23T08:03:36;8.00;;;4.87;;
8889;SDS011;4481;43.406;24.454;2022-08-23T08:06:05;6.73;;;4.13;;
8889;SDS011;4481;43.406;24.454;2022-08-23T08:08:32;10.73;;;5.13;;
8889;SDS011;4481;43.406;24.454;2022-08-23T08:10:58;6.25;;;4.32;;
8889;SDS011;4481;43.406;24.454;2022-08-23T08:13:24;8.23;;;3.58;;
8889;SDS011;4481;43.406;24.454;2022-08-23T08:15:51;11.23;;;4.93;;
8889;SDS011;4481;43.406;24.454;2022-08-23T08:18:18;7.20;;;4.13;;
8889;SDS011;4481;43.406;24.454;2022-08-23T08:20:44;4.93;;;3.43;;
8889;SDS011;4481;43.406;24.454;2022-08-23T08:23:10;5.10;;;2.97;;
8889;SDS011;4481;43.406;24.454;2022-08-23T08:25:36;6.33;;;4.10;;
8889;SDS011;4481;43.406;24.454;2022-08-23T08:28:03;8.67;;;4.00;;
8889;SDS011;4481;43.406;24.454;2022-08-23T08:30:29;8.50;;;4.60;;
8889;SDS011;4481;43.406;24.454;2022-08-23T08:32:56;7.07;;;3.90;;
8889;SDS011;4481;43.406;24.454;2022-08-23T08:35:22;9.40;;;3.90;;
8889;SDS011;4481;43.406;24.454;2022-08-23T08:37:48;6.20;;;3.87;;
8889;SDS011;4481;43.406;24.454;2022-08-23T08:40:16;9.80;;;4.60;;
8889;SDS011;4481;43.406;24.454;2022-08-23T08:42:52;10.83;;;4.87;;
8889;SDS011;4481;43.406;24.454;2022-08-23T08:45:35;6.20;;;4.40;;
8889;SDS011;4481;43.406;24.454;2022-08-23T08:48:12;11.73;;;6.73;;
8889;SDS011;4481;43.406;24.454;2022-08-23T08:50:42;10.83;;;5.10;;
8889;SDS011;4481;43.406;24.454;2022-08-23T08:53:13;7.80;;;4.73;;
8889;SDS011;4481;43.406;24.454;2022-08-23T08:55:44;7.73;;;4.33;;
8889;SDS011;4481;43.406;24.454;2022-08-23T08:58:14;7.03;;;4.57;;
8889;SDS011;4481;43.406;24.454;2022-08-23T09:00:44;9.20;;;5.87;;
8889;SDS011;4481;43.406;24.454;2022-08-23T09:03:13;8.10;;;4.00;;
8889;SDS011;4481;43.406;24.454;2022-08-23T09:05:47;6.23;;;4.03;;
8889;SDS011;4481;43.406;24.454;2022-08-23T09:08:19;6.90;;;5.00;;
8889;SDS011;4481;43.406;24.454;2022-08-23T09:10:57;11.30;;;4.60;;
8889;SDS011;4481;43.406;24.454;2022-08-23T09:13:49;4.50;;;4.10;;
8889;SDS011;4481;43.406;24.454;2022-08-23T09:16:29;5.30;;;4.60;;
8889;SDS011;4481;43.406;24.454;2022-08-23T09:19:04;7.90;;;5.10;;
8889;SDS011;4481;43.406;24.454;2022-08-23T09:21:32;8.53;;;5.43;;
8889;SDS011;4481;43.406;24.454;2022-08-23T09:24:07;8.50;;;4.67;;
8889;SDS011;4481;43.406;24.454;2022-08-23T09:26:33;6.67;;;4.73;;
8889;SDS011;4481;43.406;24.454;2022-08-23T09:29:02;5.17;;;4.53;;
8889;SDS011;4481;43.406;24.454;2022-08-23T09:31:40;6.47;;;4.73;;
8889;SDS011;4481;43.406;24.454;2022-08-23T09:34:09;8.57;;;5.43;;
8889;SDS011;4481;43.406;24.454;2022-08-23T09:36:41;8.10;;;5.37;;
8889;SDS011;4481;43.406;24.454;2022-08-23T09:39:12;7.90;;;5.03;;
8889;SDS011;4481;43.406;24.454;2022-08-23T09:41:49;7.17;;;5.77;;
8889;SDS011;4481;43.406;24.454;2022-08-23T09:44:29;8.23;;;4.90;;
8889;SDS011;4481;43.406;24.454;2022-08-23T09:47:05;11.70;;;6.77;;
8889;SDS011;4481;43.406;24.454;2022-08-23T09:49:34;8.93;;;5.37;;
8889;SDS011;4481;43.406;24.454;2022-08-23T09:52:09;9.30;;;5.57;;
8889;SDS011;4481;43.406;24.454;2022-08-23T09:54:43;6.67;;;4.93;;
8889;SDS011;4481;43.406;24.454;2022-08-23T09:57:21;8.43;;;5.67;;
8889;SDS011;4481;43.406;24.454;2022-08-23T09:59:50;6.87;;;5.43;;
8889;SDS011;4481;43.406;24.454;2022-08-23T10:02:22;8.10;;;6.23;;
8889;SDS011;4481;43.406;24.454;2022-08-23T10:04:56;7.17;;;5.27;;
8889;SDS011;4481;43.406;24.454;2022-08-23T10:07:32;7.17;;;5.53;;
8889;SDS011;4481;43.406;24.454;2022-08-23T10:10:13;10.00;;;6.60;;
8889;SDS011;4481;43.406;24.454;2022-08-23T10:12:47;8.53;;;5.60;;
8889;SDS011;4481;43.406;24.454;2022-08-23T10:15:14;7.23;;;4.87;;
8889;SDS011;4481;43.406;24.454;2022-08-23T10:17:42;9.43;;;5.47;;
8889;SDS011;4481;43.406;24.454;2022-08-23T10:20:19;6.97;;;5.87;;
8889;SDS011;4481;43.406;24.454;2022-08-23T10:22:54;6.57;;;5.40;;
8889;SDS011;4481;43.406;24.454;2022-08-23T10:25:36;5.80;;;5.20;;
8889;SDS011;4481;43.406;24.454;2022-08-23T10:28:10;8.40;;;6.50;;
8889;SDS011;4481;43.406;24.454;2022-08-23T10:31:06;7.23;;;4.90;;
8889;SDS011;4481;43.406;24.454;2022-08-23T10:33:41;7.07;;;5.50;;
8889;SDS011;4481;43.406;24.454;2022-08-23T10:36:13;7.30;;;6.23;;
8889;SDS011;4481;43.406;24.454;2022-08-23T10:38:43;11.67;;;7.93;;
8889;SDS011;4481;43.406;24.454;2022-08-23T10:41:15;11.43;;;7.63;;
8889;SDS011;4481;43.406;24.454;2022-08-23T10:43:52;7.67;;;6.67;;
8889;SDS011;4481;43.406;24.454;2022-08-23T10:46:28;9.60;;;7.33;;
8889;SDS011;4481;43.406;24.454;2022-08-23T10:48:58;7.83;;;6.03;;
8889;SDS011;4481;43.406;24.454;2022-08-23T10:51:27;7.37;;;5.37;;
8889;SDS011;4481;43.406;24.454;2022-08-23T10:53:58;7.87;;;5.37;;
8889;SDS011;4481;43.406;24.454;2022-08-23T10:56:30;5.83;;;5.10;;
8889;SDS011;4481;43.406;24.454;2022-08-23T10:58:57;11.03;;;7.70;;
8889;SDS011;4481;43.406;24.454;2022-08-23T11:01:27;8.47;;;7.10;;
8889;SDS011;4481;43.406;24.454;2022-08-23T11:03:59;8.80;;;6.80;;
8889;SDS011;4481;43.406;24.454;2022-08-23T11:06:39;9.00;;;6.67;;
8889;SDS011;4481;43.406;24.454;2022-08-23T11:12:06;10.77;;;7.30;;
8889;SDS011;4481;43.406;24.454;2022-08-23T11:14:39;14.40;;;8.30;;
8889;SDS011;4481;43.406;24.454;2022-08-23T11:17:08;12.37;;;6.60;;
8889;SDS011;4481;43.406;24.454;2022-08-23T11:19:47;8.63;;;5.97;;
8889;SDS011;4481;43.406;24.454;2022-08-23T11:22:17;14.73;;;7.70;;
8889;SDS011;4481;43.406;24.454;2022-08-23T11:24:49;9.60;;;7.30;;
8889;SDS011;4481;43.406;24.454;2022-08-23T11:27:28;10.27;;;7.17;;
8889;SDS011;4481;43.406;24.454;2022-08-23T11:29:56;9.57;;;7.03;;
8889;SDS011;4481;43.406;24.454;2022-08-23T11:32:30;11.37;;;7.03;;
8889;SDS011;4481;43.406;24.454;2022-08-23T11:35:04;13.67;;;8.80;;
8889;SDS011;4481;43.406;24.454;2022-08-23T11:43:24;14.77;;;8.77;;
8889;SDS011;4481;43.406;24.454;2022-08-23T11:45:54;11.03;;;8.67;;
8889;SDS011;4481;43.406;24.454;2022-08-23T11:48:58;12.90;;;8.97;;
8889;SDS011;4481;43.406;24.454;2022-08-23T11:51:41;15.63;;;8.63;;
8889;SDS011;4481;43.406;24.454;2022-08-23T11:54:34;11.50;;;8.73;;
8889;SDS011;4481;43.406;24.454;2022-08-23T11:57:22;10.10;;;7.43;;
8889;SDS011;4481;43.406;24.454;2022-08-23T12:00:08;14.13;;;8.33;;
8889;SDS011;4481;43.406;24.454;2022-08-23T12:02:52;12.90;;;8.17;;
8889;SDS011;4481;43.406;24.454;2022-08-23T12:05:27;11.80;;;8.10;;
8889;SDS011;4481;43.406;24.454;2022-08-23T12:08:27;11.27;;;7.60;;
8889;SDS011;4481;43.406;24.454;2022-08-23T12:10:59;10.30;;;7.60;;
8889;SDS011;4481;43.406;24.454;2022-08-23T12:13:30;16.43;;;7.50;;
8889;SDS011;4481;43.406;24.454;2022-08-23T12:16:25;8.37;;;7.20;;
8889;SDS011;4481;43.406;24.454;2022-08-23T12:19:06;10.87;;;8.00;;
8889;SDS011;4481;43.406;24.454;2022-08-23T12:21:40;22.70;;;9.23;;
8889;SDS011;4481;43.406;24.454;2022-08-23T12:24:14;14.73;;;9.57;;
8889;SDS011;4481;43.406;24.454;2022-08-23T12:26:50;14.47;;;8.40;;
8889;SDS011;4481;43.406;24.454;2022-08-23T12:29:26;11.30;;;8.43;;
8889;SDS011;4481;43.406;24.454;2022-08-23T12:32:00;14.37;;;8.53;;
8889;SDS011;4481;43.406;24.454;2022-08-23T12:34:37;16.77;;;10.43;;
8889;SDS011;4481;43.406;24.454;2022-08-23T12:37:15;15.77;;;10.30;;
8889;SDS011;4481;43.406;24.454;2022-08-23T12:39:54;14.40;;;9.00;;
8889;SDS011;4481;43.406;24.454;2022-08-23T12:42:24;11.97;;;8.50;;
8889;SDS011;4481;43.406;24.454;2022-08-23T12:44:59;11.40;;;8.73;;
8889;SDS011;4481;43.406;24.454;2022-08-23T12:47:29;12.33;;;9.73;;
8889;SDS011;4481;43.406;24.454;2022-08-23T12:49:56;15.13;;;10.33;;
8889;SDS011;4481;43.406;24.454;2022-08-23T12:52:25;15.20;;;10.03;;
8889;SDS011;4481;43.406;24.454;2022-08-23T12:54:53;14.43;;;10.03;;
8889;SDS011;4481;43.406;24.454;2022-08-23T12:57:24;11.17;;;8.50;;
8889;SDS011;4481;43.406;24.454;2022-08-23T13:00:04;11.63;;;8.27;;
8889;SDS011;4481;43.406;24.454;2022-08-23T13:02:40;12.40;;;8.03;;
8889;SDS011;4481;43.406;24.454;2022-08-23T13:05:12;11.50;;;7.90;;
8889;SDS011;4481;43.406;24.454;2022-08-23T13:07:47;8.97;;;6.67;;
8889;SDS011;4481;43.406;24.454;2022-08-23T13:10:15;10.60;;;7.27;;
8889;SDS011;4481;43.406;24.454;2022-08-23T13:12:42;7.87;;;6.07;;
8889;SDS011;4481;43.406;24.454;2022-08-23T13:15:09;11.47;;;6.73;;
8889;SDS011;4481;43.406;24.454;2022-08-23T13:17:36;9.33;;;6.67;;
8889;SDS011;4481;43.406;24.454;2022-08-23T13:20:19;8.23;;;7.07;;
8889;SDS011;4481;43.406;24.454;2022-08-23T13:22:55;10.27;;;7.50;;
8889;SDS011;4481;43.406;24.454;2022-08-23T13:25:25;8.87;;;6.73;;
8889;SDS011;4481;43.406;24.454;2022-08-23T13:27:54;9.60;;;6.00;;
8889;SDS011;4481;43.406;24.454;2022-08-23T13:30:22;7.07;;;5.47;;
8889;SDS011;4481;43.406;24.454;2022-08-23T13:32:51;7.93;;;5.27;;
8889;SDS011;4481;43.406;24.454;2022-08-23T13:35:38;7.00;;;6.27;;
8889;SDS011;4481;43.406;24.454;2022-08-23T13:38:09;6.67;;;5.07;;
8889;SDS011;4481;43.406;24.454;2022-08-23T13:40:40;5.80;;;5.00;;
8889;SDS011;4481;43.406;24.454;2022-08-23T13:43:11;8.30;;;5.20;;
8889;SDS011;4481;43.406;24.454;2022-08-23T13:45:44;4.67;;;4.17;;
8889;SDS011;4481;43.406;24.454;2022-08-23T13:48:12;5.87;;;4.70;;
8889;SDS011;4481;43.406;24.454;2022-08-23T13:50:44;5.37;;;4.73;;
8889;SDS011;4481;43.406;24.454;2022-08-23T13:53:10;8.50;;;5.47;;
8889;SDS011;4481;43.406;24.454;2022-08-23T13:55:38;6.33;;;3.73;;
8889;SDS011;4481;43.406;24.454;2022-08-23T13:58:08;6.83;;;5.13;;
8889;SDS011;4481;43.406;24.454;2022-08-23T14:00:36;16.80;;;5.40;;
8889;SDS011;4481;43.406;24.454;2022-08-23T14:03:02;4.83;;;3.73;;
8889;SDS011;4481;43.406;24.454;2022-08-23T14:05:28;5.67;;;3.80;;
8889;SDS011;4481;43.406;24.454;2022-08-23T14:07:55;5.40;;;3.87;;
8889;SDS011;4481;43.406;24.454;2022-08-23T14:10:21;6.17;;;3.70;;
8889;SDS011;4481;43.406;24.454;2022-08-23T14:12:49;5.50;;;4.53;;
8889;SDS011;4481;43.406;24.454;2022-08-23T14:15:18;6.93;;;5.50;;
8889;SDS011;4481;43.406;24.454;2022-08-23T14:17:46;7.20;;;4.83;;
8889;SDS011;4481;43.406;24.454;2022-08-23T14:20:15;9.77;;;5.43;;
8889;SDS011;4481;43.406;24.454;2022-08-23T14:22:44;6.07;;;4.80;;
8889;SDS011;4481;43.406;24.454;2022-08-23T14:25:10;5.33;;;4.57;;
8889;SDS011;4481;43.406;24.454;2022-08-23T14:27:38;7.53;;;5.10;;
8889;SDS011;4481;43.406;24.454;2022-08-23T14:30:17;8.07;;;5.37;;
8889;SDS011;4481;43.406;24.454;2022-08-23T14:32:48;5.53;;;4.73;;
8889;SDS011;4481;43.406;24.454;2022-08-23T14:35:14;9.57;;;4.60;;
8889;SDS011;4481;43.406;24.454;2022-08-23T14:37:41;8.97;;;6.27;;
8889;SDS011;4481;43.406;24.454;2022-08-23T14:40:07;8.17;;;6.17;;
8889;SDS011;4481;43.406;24.454;2022-08-23T14:42:34;6.20;;;5.57;;
8889;SDS011;4481;43.406;24.454;2022-08-23T14:45:00;6.87;;;5.90;;
8889;SDS011;4481;43.406;24.454;2022-08-23T14:47:27;7.30;;;6.23;;
8889;SDS011;4481;43.406;24.454;2022-08-23T14:49:54;8.50;;;6.53;;
8889;SDS011;4481;43.406;24.454;2022-08-23T14:52:21;7.73;;;6.70;;
8889;SDS011;4481;43.406;24.454;2022-08-23T14:54:47;10.50;;;7.47;;
8889;SDS011;4481;43.406;24.454;2022-08-23T14:57:14;7.43;;;6.07;;
8889;SDS011;4481;43.406;24.454;2022-08-23T14:59:40;9.00;;;6.47;;
8889;SDS011;4481;43.406;24.454;2022-08-23T15:02:07;8.50;;;6.17;;
8889;SDS011;4481;43.406;24.454;2022-08-23T15:04:37;8.43;;;6.90;;
8889;SDS011;4481;43.406;24.454;2022-08-23T15:07:05;7.23;;;6.20;;
8889;SDS011;4481;43.406;24.454;2022-08-23T15:09:31;8.43;;;6.00;;
8889;SDS011;4481;43.406;24.454;2022-08-23T15:11:58;8.40;;;6.17;;
8889;SDS011;4481;43.406;24.454;2022-08-23T15:14:24;7.53;;;6.60;;
8889;SDS011;4481;43.406;24.454;2022-08-23T15:16:50;7.73;;;6.23;;